sensor_id;sensor_type;location;lat;lon;timestamp;temperature;humidity
1978;DHT22;989;53.016;8.346;2022-10-16T00:01:23;11.80;99.90
1978;DHT22;989;53.016;8.346;2022-10-16T00:03:51;11.70;99.90
1978;DHT22;989;53.016;8.346;2022-10-16T00:06:18;11.70;99.90
1978;DHT22;989;53.016;8.346;2022-10-16T00:08:45;11.70;99.90
1978;DHT22;989;53.016;8.346;2022-10-16T00:11:19;11.70;99.90
1978;DHT22;989;53.016;8.346;2022-10-16T00:13:47;11.70;99.90
1978;DHT22;989;53.016;8.346;2022-10-16T00:16:16;11.70;99.90
1978;DHT22;989;53.016;8.346;2022-10-16T00:18:42;11.70;99.90
1978;DHT22;989;53.016;8.346;2022-10-16T00:21:15;11.60;99.90
1978;DHT22;989;53.016;8.346;2022-10-16T00:23:42;11.60;99.90
1978;DHT22;989;53.016;8.346;2022-10-16T00:26:12;11.60;99.90
1978;DHT22;989;53.016;8.346;2022-10-16T00:28:40;11.60;99.90
1978;DHT22;989;53.016;8.346;2022-10-16T00:31:08;11.60;99.90
1978;DHT22;989;53.016;8.346;2022-10-16T00:33:36;11.60;99.90
1978;DHT22;989;53.016;8.346;2022-10-16T00:36:04;11.60;99.90
1978;DHT22;989;53.016;8.346;2022-10-16T00:38:31;11.60;99.90
1978;DHT22;989;53.016;8.346;2022-10-16T00:40:57;11.60;99.90
1978;DHT22;989;53.016;8.346;2022-10-16T00:43:48;11.50;99.90
1978;DHT22;989;53.016;8.346;2022-10-16T00:46:20;11.40;99.90
1978;DHT22;989;53.016;8.346;2022-10-16T00:51:37;11.20;99.90
1978;DHT22;989;53.016;8.346;2022-10-16T00:54:23;11.20;99.90
1978;DHT22;989;53.016;8.346;2022-10-16T00:56:52;11.20;99.90
1978;DHT22;989;53.016;8.346;2022-10-16T00:59:48;11.20;99.90
1978;DHT22;989;53.016;8.346;2022-10-16T01:02:15;11.10;99.90
1978;DHT22;989;53.016;8.346;2022-10-16T01:04:48;11.10;99.90
1978;DHT22;989;53.016;8.346;2022-10-16T01:07:41;11.10;99.90
1978;DHT22;989;53.016;8.346;2022-10-16T01:10:21;11.10;99.90
1978;DHT22;989;53.016;8.346;2022-10-16T01:13:07;11.10;99.90
1978;DHT22;989;53.016;8.346;2022-10-16T01:18:55;11.10;99.90
1978;DHT22;989;53.016;8.346;2022-10-16T01:21:29;11.10;99.90
1978;DHT22;989;53.016;8.346;2022-10-16T01:32:41;11.10;99.90
1978;DHT22;989;53.016;8.346;2022-10-16T01:35:19;11.10;99.90
1978;DHT22;989;53.016;8.346;2022-10-16T01:38:06;11.10;99.90
1978;DHT22;989;53.016;8.346;2022-10-16T01:40:38;11.10;99.90
1978;DHT22;989;53.016;8.346;2022-10-16T01:43:10;11.10;99.90
1978;DHT22;989;53.016;8.346;2022-10-16T01:45:38;11.10;99.90
1978;DHT22;989;53.016;8.346;2022-10-16T01:48:06;11.10;99.90
1978;DHT22;989;53.016;8.346;2022-10-16T01:50:38;11.10;99.90
1978;DHT22;989;53.016;8.346;2022-10-16T01:53:07;11.20;99.90
1978;DHT22;989;53.016;8.346;2022-10-16T01:55:36;11.20;99.90
1978;DHT22;989;53.016;8.346;2022-10-16T01:58:07;11.20;99.90
1978;DHT22;989;53.016;8.346;2022-10-16T02:00:34;11.20;99.90
1978;DHT22;989;53.016;8.346;2022-10-16T02:03:03;11.30;99.90
1978;DHT22;989;53.016;8.346;2022-10-16T02:05:38;11.30;99.90
1978;DHT22;989;53.016;8.346;2022-10-16T02:08:05;11.30;99.90
1978;DHT22;989;53.016;8.346;2022-10-16T02:10:31;11.30;99.90
1978;DHT22;989;53.016;8.346;2022-10-16T02:13:03;11.30;99.90
1978;DHT22;989;53.016;8.346;2022-10-16T02:15:31;11.30;99.90
1978;DHT22;989;53.016;8.346;2022-10-16T02:17:56;11.30;99.90
1978;DHT22;989;53.016;8.346;2022-10-16T02:20:26;11.30;99.90
1978;DHT22;989;53.016;8.346;2022-10-16T02:22:54;11.40;99.90
1978;DHT22;989;53.016;8.346;2022-10-16T02:25:31;11.40;99.90
1978;DHT22;989;53.016;8.346;2022-10-16T02:28:03;11.40;99.90
1978;DHT22;989;53.016;8.346;2022-10-16T02:30:37;11.40;99.90
1978;DHT22;989;53.016;8.346;2022-10-16T02:33:08;11.50;99.90
1978;DHT22;989;53.016;8.346;2022-10-16T02:35:36;11.50;99.90
1978;DHT22;989;53.016;8.346;2022-10-16T02:38:02;11.50;99.90
1978;DHT22;989;53.016;8.346;2022-10-16T02:40:28;11.60;99.90
1978;DHT22;989;53.016;8.346;2022-10-16T02:42:55;11.50;99.90
1978;DHT22;989;53.016;8.346;2022-10-16T02:45:21;11.60;99.90
1978;DHT22;989;53.016;8.346;2022-10-16T02:47:47;11.60;99.90
1978;DHT22;989;53.016;8.346;2022-10-16T02:50:14;11.60;99.90
1978;DHT22;989;53.016;8.346;2022-10-16T02:52:39;11.60;99.70
1978;DHT22;989;53.016;8.346;2022-10-16T02:55:06;11.50;99.40
1978;DHT22;989;53.016;8.346;2022-10-16T02:57:32;11.50;99.90
1978;DHT22;989;53.016;8.346;2022-10-16T02:59:58;11.60;99.90
1978;DHT22;989;53.016;8.346;2022-10-16T03:02:24;11.60;99.90
1978;DHT22;989;53.016;8.346;2022-10-16T03:04:49;11.60;99.90
1978;DHT22;989;53.016;8.346;2022-10-16T03:07:15;11.60;99.90
1978;DHT22;989;53.016;8.346;2022-10-16T03:09:41;11.60;99.90
1978;DHT22;989;53.016;8.346;2022-10-16T03:12:07;11.60;99.90
1978;DHT22;989;53.016;8.346;2022-10-16T03:14:33;11.60;99.90
1978;DHT22;989;53.016;8.346;2022-10-16T03:16:59;11.60;99.90
1978;DHT22;989;53.016;8.346;2022-10-16T03:19:24;11.50;99.90
1978;DHT22;989;53.016;8.346;2022-10-16T03:21:50;11.60;99.90
1978;DHT22;989;53.016;8.346;2022-10-16T03:24:15;11.60;99.90
1978;DHT22;989;53.016;8.346;2022-10-16T03:26:41;11.60;99.90
1978;DHT22;989;53.016;8.346;2022-10-16T03:29:07;11.60;99.90
1978;DHT22;989;53.016;8.346;2022-10-16T03:31:33;11.50;99.90
1978;DHT22;989;53.016;8.346;2022-10-16T03:33:59;11.50;99.90
1978;DHT22;989;53.016;8.346;2022-10-16T03:36:24;11.40;99.90
1978;DHT22;989;53.016;8.346;2022-10-16T03:38:50;11.40;99.90
1978;DHT22;989;53.016;8.346;2022-10-16T03:41:16;11.30;99.90
1978;DHT22;989;53.016;8.346;2022-10-16T03:43:41;11.30;99.90
1978;DHT22;989;53.016;8.346;2022-10-16T03:46:07;11.30;99.90
1978;DHT22;989;53.016;8.346;2022-10-16T03:48:33;11.30;99.90
1978;DHT22;989;53.016;8.346;2022-10-16T03:50:58;11.30;99.90
1978;DHT22;989;53.016;8.346;2022-10-16T03:53:24;11.30;99.90
1978;DHT22;989;53.016;8.346;2022-10-16T03:55:50;11.30;99.90
1978;DHT22;989;53.016;8.346;2022-10-16T03:58:16;11.30;99.90
1978;DHT22;989;53.016;8.346;2022-10-16T04:00:43;11.30;99.90
1978;DHT22;989;53.016;8.346;2022-10-16T04:03:10;11.30;99.90
1978;DHT22;989;53.016;8.346;2022-10-16T04:05:36;11.30;99.90
1978;DHT22;989;53.016;8.346;2022-10-16T04:08:02;11.30;99.90
1978;DHT22;989;53.016;8.346;2022-10-16T04:10:28;11.40;99.90
1978;DHT22;989;53.016;8.346;2022-10-16T04:12:53;11.40;99.90
1978;DHT22;989;53.016;8.346;2022-10-16T04:15:22;11.40;99.90
1978;DHT22;989;53.016;8.346;2022-10-16T04:17:48;11.50;99.90
1978;DHT22;989;53.016;8.346;2022-10-16T04:20:14;11.50;99.90
1978;DHT22;989;53.016;8.346;2022-10-16T04:22:40;11.60;99.90
1978;DHT22;989;53.016;8.346;2022-10-16T04:25:06;11.50;99.90
1978;DHT22;989;53.016;8.346;2022-10-16T04:27:32;11.60;99.90
1978;DHT22;989;53.016;8.346;2022-10-16T04:29:59;11.60;99.90
1978;DHT22;989;53.016;8.346;2022-10-16T04:32:26;11.70;99.90
1978;DHT22;989;53.016;8.346;2022-10-16T04:34:52;11.70;99.90
1978;DHT22;989;53.016;8.346;2022-10-16T04:37:18;11.80;99.90
1978;DHT22;989;53.016;8.346;2022-10-16T04:39:44;11.80;99.90
1978;DHT22;989;53.016;8.346;2022-10-16T04:42:10;11.90;99.90
1978;DHT22;989;53.016;8.346;2022-10-16T04:44:36;11.90;99.90
1978;DHT22;989;53.016;8.346;2022-10-16T04:47:02;11.80;99.90
1978;DHT22;989;53.016;8.346;2022-10-16T04:49:28;11.80;99.90
1978;DHT22;989;53.016;8.346;2022-10-16T04:51:53;11.80;99.90
1978;DHT22;989;53.016;8.346;2022-10-16T04:54:19;11.80;99.90
1978;DHT22;989;53.016;8.346;2022-10-16T04:56:45;11.70;99.90
1978;DHT22;989;53.016;8.346;2022-10-16T04:59:16;11.80;99.90
1978;DHT22;989;53.016;8.346;2022-10-16T05:01:43;11.80;99.90
1978;DHT22;989;53.016;8.346;2022-10-16T05:04:09;11.80;99.90
1978;DHT22;989;53.016;8.346;2022-10-16T05:06:35;11.80;99.90
1978;DHT22;989;53.016;8.346;2022-10-16T05:09:01;11.90;99.90
1978;DHT22;989;53.016;8.346;2022-10-16T05:11:27;11.90;99.90
1978;DHT22;989;53.016;8.346;2022-10-16T05:13:52;11.90;99.90
1978;DHT22;989;53.016;8.346;2022-10-16T05:16:18;11.90;99.90
1978;DHT22;989;53.016;8.346;2022-10-16T05:18:44;11.90;99.90
1978;DHT22;989;53.016;8.346;2022-10-16T05:21:09;11.90;99.90
1978;DHT22;989;53.016;8.346;2022-10-16T05:23:35;11.90;99.90
1978;DHT22;989;53.016;8.346;2022-10-16T05:26:01;11.80;99.90
1978;DHT22;989;53.016;8.346;2022-10-16T05:28:28;11.80;99.90
1978;DHT22;989;53.016;8.346;2022-10-16T05:30:55;11.70;99.90
1978;DHT22;989;53.016;8.346;2022-10-16T05:33:24;11.70;99.90
1978;DHT22;989;53.016;8.346;2022-10-16T05:35:50;11.70;99.90
1978;DHT22;989;53.016;8.346;2022-10-16T05:38:17;11.70;99.90
1978;DHT22;989;53.016;8.346;2022-10-16T05:40:49;11.70;99.90
1978;DHT22;989;53.016;8.346;2022-10-16T05:43:16;11.70;99.90
1978;DHT22;989;53.016;8.346;2022-10-16T05:45:41;11.70;99.90
1978;DHT22;989;53.016;8.346;2022-10-16T05:48:07;11.70;99.90
1978;DHT22;989;53.016;8.346;2022-10-16T05:50:33;11.70;99.90
1978;DHT22;989;53.016;8.346;2022-10-16T05:52:58;11.70;99.90
1978;DHT22;989;53.016;8.346;2022-10-16T05:55:24;11.70;99.90
1978;DHT22;989;53.016;8.346;2022-10-16T05:57:49;11.80;99.90
1978;DHT22;989;53.016;8.346;2022-10-16T06:00:15;11.70;99.90
1978;DHT22;989;53.016;8.346;2022-10-16T06:02:41;11.70;99.90
1978;DHT22;989;53.016;8.346;2022-10-16T06:05:06;11.70;99.90
1978;DHT22;989;53.016;8.346;2022-10-16T06:07:35;11.70;99.90
1978;DHT22;989;53.016;8.346;2022-10-16T06:10:01;11.70;99.90
1978;DHT22;989;53.016;8.346;2022-10-16T06:12:28;11.60;99.90
1978;DHT22;989;53.016;8.346;2022-10-16T06:14:53;11.70;99.90
1978;DHT22;989;53.016;8.346;2022-10-16T06:17:19;11.60;99.90
1978;DHT22;989;53.016;8.346;2022-10-16T06:19:44;11.60;99.90
1978;DHT22;989;53.016;8.346;2022-10-16T06:22:10;11.60;99.90
1978;DHT22;989;53.016;8.346;2022-10-16T06:24:36;11.60;99.90
1978;DHT22;989;53.016;8.346;2022-10-16T06:27:03;11.60;99.90
1978;DHT22;989;53.016;8.346;2022-10-16T06:29:29;11.60;99.90
1978;DHT22;989;53.016;8.346;2022-10-16T06:31:55;11.60;99.90
1978;DHT22;989;53.016;8.346;2022-10-16T06:34:20;11.70;99.90
1978;DHT22;989;53.016;8.346;2022-10-16T06:36:46;11.60;99.90
1978;DHT22;989;53.016;8.346;2022-10-16T06:39:12;11.70;99.90
1978;DHT22;989;53.016;8.346;2022-10-16T06:41:37;11.70;99.90
1978;DHT22;989;53.016;8.346;2022-10-16T06:44:07;11.70;99.90
1978;DHT22;989;53.016;8.346;2022-10-16T06:46:35;11.80;99.90
1978;DHT22;989;53.016;8.346;2022-10-16T06:49:01;11.80;99.90
1978;DHT22;989;53.016;8.346;2022-10-16T06:51:26;11.80;99.90
1978;DHT22;989;53.016;8.346;2022-10-16T06:53:54;11.90;99.90
1978;DHT22;989;53.016;8.346;2022-10-16T06:56:26;11.90;99.90
1978;DHT22;989;53.016;8.346;2022-10-16T06:58:53;12.00;99.90
1978;DHT22;989;53.016;8.346;2022-10-16T07:01:21;12.00;99.90
1978;DHT22;989;53.016;8.346;2022-10-16T07:03:48;12.10;99.90
1978;DHT22;989;53.016;8.346;2022-10-16T07:06:16;12.20;99.90
1978;DHT22;989;53.016;8.346;2022-10-16T07:08:45;12.30;99.90
1978;DHT22;989;53.016;8.346;2022-10-16T07:11:14;12.30;99.90
1978;DHT22;989;53.016;8.346;2022-10-16T07:13:42;12.30;99.90
1978;DHT22;989;53.016;8.346;2022-10-16T07:16:17;12.40;99.90
1978;DHT22;989;53.016;8.346;2022-10-16T07:18:45;12.40;99.90
1978;DHT22;989;53.016;8.346;2022-10-16T07:21:19;12.40;99.90
1978;DHT22;989;53.016;8.346;2022-10-16T07:23:52;12.40;99.90
1978;DHT22;989;53.016;8.346;2022-10-16T07:26:18;12.50;99.90
1978;DHT22;989;53.016;8.346;2022-10-16T07:28:44;12.60;99.90
1978;DHT22;989;53.016;8.346;2022-10-16T07:31:11;12.60;99.90
1978;DHT22;989;53.016;8.346;2022-10-16T07:33:40;12.60;99.90
1978;DHT22;989;53.016;8.346;2022-10-16T07:36:08;12.70;99.90
1978;DHT22;989;53.016;8.346;2022-10-16T07:38:34;12.80;99.90
1978;DHT22;989;53.016;8.346;2022-10-16T07:41:02;12.90;99.90
1978;DHT22;989;53.016;8.346;2022-10-16T07:43:30;13.00;99.90
1978;DHT22;989;53.016;8.346;2022-10-16T07:45:56;13.10;99.90
1978;DHT22;989;53.016;8.346;2022-10-16T07:48:23;13.20;99.90
1978;DHT22;989;53.016;8.346;2022-10-16T07:50:49;13.30;99.90
1978;DHT22;989;53.016;8.346;2022-10-16T07:53:15;13.30;99.90
1978;DHT22;989;53.016;8.346;2022-10-16T07:55:41;13.40;99.90
1978;DHT22;989;53.016;8.346;2022-10-16T07:58:07;13.50;99.60
1978;DHT22;989;53.016;8.346;2022-10-16T08:00:33;13.50;96.40
1978;DHT22;989;53.016;8.346;2022-10-16T08:02:59;13.50;95.10
1978;DHT22;989;53.016;8.346;2022-10-16T08:05:29;13.60;93.80
1978;DHT22;989;53.016;8.346;2022-10-16T08:07:56;13.60;91.70
1978;DHT22;989;53.016;8.346;2022-10-16T08:10:24;13.80;91.10
1978;DHT22;989;53.016;8.346;2022-10-16T08:12:51;14.10;87.90
1978;DHT22;989;53.016;8.346;2022-10-16T08:15:17;14.30;75.40
1978;DHT22;989;53.016;8.346;2022-10-16T08:17:43;14.40;72.40
1978;DHT22;989;53.016;8.346;2022-10-16T08:20:10;14.50;65.30
1978;DHT22;989;53.016;8.346;2022-10-16T08:22:36;14.50;62.90
1978;DHT22;989;53.016;8.346;2022-10-16T08:25:02;14.60;61.30
1978;DHT22;989;53.016;8.346;2022-10-16T08:27:32;14.40;63.10
1978;DHT22;989;53.016;8.346;2022-10-16T08:29:58;14.60;67.20
1978;DHT22;989;53.016;8.346;2022-10-16T08:32:23;14.80;63.30
1978;DHT22;989;53.016;8.346;2022-10-16T08:34:49;15.20;57.10
1978;DHT22;989;53.016;8.346;2022-10-16T08:37:14;15.30;46.30
1978;DHT22;989;53.016;8.346;2022-10-16T08:39:40;15.30;40.40
1978;DHT22;989;53.016;8.346;2022-10-16T08:42:29;15.20;46.40
1978;DHT22;989;53.016;8.346;2022-10-16T08:50:23;15.20;46.20
1978;DHT22;989;53.016;8.346;2022-10-16T08:52:52;15.40;45.20
1978;DHT22;989;53.016;8.346;2022-10-16T08:55:42;15.60;39.60
1978;DHT22;989;53.016;8.346;2022-10-16T08:58:26;15.80;29.70
1978;DHT22;989;53.016;8.346;2022-10-16T09:00:54;16.30;21.70
1978;DHT22;989;53.016;8.346;2022-10-16T09:03:33;16.80;8.50
1978;DHT22;989;53.016;8.346;2022-10-16T09:06:26;16.40;11.40
1978;DHT22;989;53.016;8.346;2022-10-16T09:09:10;16.20;16.80
1978;DHT22;989;53.016;8.346;2022-10-16T09:14:47;15.90;20.50
1978;DHT22;989;53.016;8.346;2022-10-16T09:20:33;15.80;24.10
1978;DHT22;989;53.016;8.346;2022-10-16T09:25:32;16.00;20.80
1978;DHT22;989;53.016;8.346;2022-10-16T09:27:58;16.00;16.60
1978;DHT22;989;53.016;8.346;2022-10-16T09:30:27;15.80;22.80
1978;DHT22;989;53.016;8.346;2022-10-16T09:32:55;15.80;16.70
1978;DHT22;989;53.016;8.346;2022-10-16T09:35:28;15.90;19.20
1978;DHT22;989;53.016;8.346;2022-10-16T09:37:57;16.00;17.00
1978;DHT22;989;53.016;8.346;2022-10-16T09:40:26;16.20;15.90
1978;DHT22;989;53.016;8.346;2022-10-16T09:43:16;16.20;15.30
1978;DHT22;989;53.016;8.346;2022-10-16T09:46:04;16.20;16.60
1978;DHT22;989;53.016;8.346;2022-10-16T09:48:39;16.30;12.30
1978;DHT22;989;53.016;8.346;2022-10-16T09:51:32;16.20;15.70
1978;DHT22;989;53.016;8.346;2022-10-16T09:56:36;16.40;12.30
1978;DHT22;989;53.016;8.346;2022-10-16T09:59:16;16.60;10.30
1978;DHT22;989;53.016;8.346;2022-10-16T10:01:51;16.40;12.20
1978;DHT22;989;53.016;8.346;2022-10-16T10:04:25;16.60;16.00
1978;DHT22;989;53.016;8.346;2022-10-16T10:06:55;16.90;9.80
1978;DHT22;989;53.016;8.346;2022-10-16T10:09:23;17.00;3.10
1978;DHT22;989;53.016;8.346;2022-10-16T10:12:03;17.10;1.00
1978;DHT22;989;53.016;8.346;2022-10-16T10:14:43;17.10;1.00
1978;DHT22;989;53.016;8.346;2022-10-16T10:19:59;17.00;1.00
1978;DHT22;989;53.016;8.346;2022-10-16T10:22:32;17.10;1.00
1978;DHT22;989;53.016;8.346;2022-10-16T10:30:41;17.20;1.00
1978;DHT22;989;53.016;8.346;2022-10-16T10:36:28;17.20;1.00
1978;DHT22;989;53.016;8.346;2022-10-16T10:45:11;17.00;1.00
1978;DHT22;989;53.016;8.346;2022-10-16T10:50:56;17.20;1.00
1978;DHT22;989;53.016;8.346;2022-10-16T11:02:42;17.50;1.00
1978;DHT22;989;53.016;8.346;2022-10-16T11:11:05;17.70;1.00
1978;DHT22;989;53.016;8.346;2022-10-16T11:13:56;17.70;1.00
1978;DHT22;989;53.016;8.346;2022-10-16T11:16:31;17.90;1.00
1978;DHT22;989;53.016;8.346;2022-10-16T11:22:20;17.80;1.00
1978;DHT22;989;53.016;8.346;2022-10-16T11:25:02;18.10;1.00
1978;DHT22;989;53.016;8.346;2022-10-16T11:27:50;18.10;1.00
1978;DHT22;989;53.016;8.346;2022-10-16T11:30:23;18.20;1.00
1978;DHT22;989;53.016;8.346;2022-10-16T11:41:43;18.10;1.00
1978;DHT22;989;53.016;8.346;2022-10-16T11:47:34;17.40;1.00
1978;DHT22;989;53.016;8.346;2022-10-16T11:50:25;17.20;1.00
1978;DHT22;989;53.016;8.346;2022-10-16T11:56:04;17.60;1.00
1978;DHT22;989;53.016;8.346;2022-10-16T11:59:05;17.30;1.00
1978;DHT22;989;53.016;8.346;2022-10-16T12:02:13;17.90;1.00
1978;DHT22;989;53.016;8.346;2022-10-16T12:04:39;18.40;1.00
1978;DHT22;989;53.016;8.346;2022-10-16T12:07:16;17.90;1.00
1978;DHT22;989;53.016;8.346;2022-10-16T12:09:45;17.90;1.00
1978;DHT22;989;53.016;8.346;2022-10-16T12:15:01;17.40;1.00
1978;DHT22;989;53.016;8.346;2022-10-16T12:17:36;17.30;1.00
1978;DHT22;989;53.016;8.346;2022-10-16T12:22:42;17.10;1.00
1978;DHT22;989;53.016;8.346;2022-10-16T12:25:37;17.10;1.00
1978;DHT22;989;53.016;8.346;2022-10-16T12:30:40;17.40;1.00
1978;DHT22;989;53.016;8.346;2022-10-16T12:33:22;17.30;1.00
1978;DHT22;989;53.016;8.346;2022-10-16T12:35:50;17.30;1.00
1978;DHT22;989;53.016;8.346;2022-10-16T12:41:27;17.50;1.00
1978;DHT22;989;53.016;8.346;2022-10-16T12:43:55;17.50;1.00
1978;DHT22;989;53.016;8.346;2022-10-16T12:49:51;17.50;1.00
1978;DHT22;989;53.016;8.346;2022-10-16T12:51:53;17.70;1.00
1978;DHT22;989;53.016;8.346;2022-10-16T12:54:29;17.80;1.00
1978;DHT22;989;53.016;8.346;2022-10-16T13:00:40;17.50;1.00
1978;DHT22;989;53.016;8.346;2022-10-16T13:03:26;17.70;1.00
1978;DHT22;989;53.016;8.346;2022-10-16T13:06:53;17.90;1.00
1978;DHT22;989;53.016;8.346;2022-10-16T13:10:06;17.80;1.00
1978;DHT22;989;53.016;8.346;2022-10-16T13:13:02;17.90;1.00
1978;DHT22;989;53.016;8.346;2022-10-16T13:18:27;17.30;1.00
1978;DHT22;989;53.016;8.346;2022-10-16T13:21:16;17.20;1.00
1978;DHT22;989;53.016;8.346;2022-10-16T13:30:19;17.10;1.00
1978;DHT22;989;53.016;8.346;2022-10-16T13:32:48;17.00;1.00
1978;DHT22;989;53.016;8.346;2022-10-16T13:35:30;17.10;1.00
1978;DHT22;989;53.016;8.346;2022-10-16T13:38:13;17.30;1.00
1978;DHT22;989;53.016;8.346;2022-10-16T13:40:54;17.50;1.00
1978;DHT22;989;53.016;8.346;2022-10-16T13:43:46;17.60;1.00
1978;DHT22;989;53.016;8.346;2022-10-16T13:46:21;17.70;1.00
1978;DHT22;989;53.016;8.346;2022-10-16T13:48:59;17.80;1.00
1978;DHT22;989;53.016;8.346;2022-10-16T13:51:27;17.90;1.00
1978;DHT22;989;53.016;8.346;2022-10-16T13:53:56;18.00;1.00
1978;DHT22;989;53.016;8.346;2022-10-16T13:56:26;17.80;1.00
1978;DHT22;989;53.016;8.346;2022-10-16T13:59:21;17.90;1.00
1978;DHT22;989;53.016;8.346;2022-10-16T14:01:48;18.20;1.00
1978;DHT22;989;53.016;8.346;2022-10-16T14:04:14;18.80;1.00
1978;DHT22;989;53.016;8.346;2022-10-16T14:06:43;18.90;1.00
1978;DHT22;989;53.016;8.346;2022-10-16T14:09:29;19.70;1.00
1978;DHT22;989;53.016;8.346;2022-10-16T14:12:01;19.60;1.00
1978;DHT22;989;53.016;8.346;2022-10-16T14:14:38;19.70;1.00
1978;DHT22;989;53.016;8.346;2022-10-16T14:17:06;20.10;1.00
1978;DHT22;989;53.016;8.346;2022-10-16T14:19:32;20.30;1.00
1978;DHT22;989;53.016;8.346;2022-10-16T14:21:59;20.70;1.00
1978;DHT22;989;53.016;8.346;2022-10-16T14:24:34;21.00;1.00
1978;DHT22;989;53.016;8.346;2022-10-16T14:27:01;21.00;1.00
1978;DHT22;989;53.016;8.346;2022-10-16T14:29:29;20.90;1.00
1978;DHT22;989;53.016;8.346;2022-10-16T14:34:37;20.70;1.00
1978;DHT22;989;53.016;8.346;2022-10-16T14:37:17;20.30;1.00
1978;DHT22;989;53.016;8.346;2022-10-16T14:39:50;20.50;1.00
1978;DHT22;989;53.016;8.346;2022-10-16T14:42:17;21.00;1.00
1978;DHT22;989;53.016;8.346;2022-10-16T14:44:46;20.60;1.00
1978;DHT22;989;53.016;8.346;2022-10-16T14:47:18;20.00;1.00
1978;DHT22;989;53.016;8.346;2022-10-16T14:49:49;19.90;1.00
1978;DHT22;989;53.016;8.346;2022-10-16T14:52:14;20.20;1.00
1978;DHT22;989;53.016;8.346;2022-10-16T14:54:40;20.50;1.00
1978;DHT22;989;53.016;8.346;2022-10-16T14:57:16;20.30;1.00
1978;DHT22;989;53.016;8.346;2022-10-16T14:59:43;20.40;1.00
1978;DHT22;989;53.016;8.346;2022-10-16T15:02:30;20.40;1.00
1978;DHT22;989;53.016;8.346;2022-10-16T15:04:57;20.30;1.00
1978;DHT22;989;53.016;8.346;2022-10-16T15:07:24;20.70;1.00
1978;DHT22;989;53.016;8.346;2022-10-16T15:09:50;20.80;1.00
1978;DHT22;989;53.016;8.346;2022-10-16T15:12:16;20.70;1.00
1978;DHT22;989;53.016;8.346;2022-10-16T15:14:42;20.50;1.00
1978;DHT22;989;53.016;8.346;2022-10-16T15:17:10;20.20;1.00
1978;DHT22;989;53.016;8.346;2022-10-16T15:19:36;19.80;1.00
1978;DHT22;989;53.016;8.346;2022-10-16T15:22:02;19.40;1.00
1978;DHT22;989;53.016;8.346;2022-10-16T15:24:28;19.20;1.00
1978;DHT22;989;53.016;8.346;2022-10-16T15:26:53;18.70;1.00
1978;DHT22;989;53.016;8.346;2022-10-16T15:29:19;18.40;1.00
1978;DHT22;989;53.016;8.346;2022-10-16T15:31:45;17.70;1.00
1978;DHT22;989;53.016;8.346;2022-10-16T15:34:13;17.10;1.00
1978;DHT22;989;53.016;8.346;2022-10-16T15:36:40;16.90;1.00
1978;DHT22;989;53.016;8.346;2022-10-16T15:39:12;16.70;1.00
1978;DHT22;989;53.016;8.346;2022-10-16T15:41:38;16.60;1.00
1978;DHT22;989;53.016;8.346;2022-10-16T15:44:04;16.50;1.00
1978;DHT22;989;53.016;8.346;2022-10-16T15:46:30;16.30;1.00
1978;DHT22;989;53.016;8.346;2022-10-16T15:48:58;16.20;1.00
1978;DHT22;989;53.016;8.346;2022-10-16T15:51:25;16.10;1.00
1978;DHT22;989;53.016;8.346;2022-10-16T15:53:54;15.90;1.00
1978;DHT22;989;53.016;8.346;2022-10-16T15:56:22;15.80;1.00
1978;DHT22;989;53.016;8.346;2022-10-16T15:58:48;15.70;1.00
1978;DHT22;989;53.016;8.346;2022-10-16T16:01:14;15.60;1.00
1978;DHT22;989;53.016;8.346;2022-10-16T16:03:39;15.50;1.00
1978;DHT22;989;53.016;8.346;2022-10-16T16:06:08;15.40;1.00
1978;DHT22;989;53.016;8.346;2022-10-16T16:08:35;15.20;1.00
1978;DHT22;989;53.016;8.346;2022-10-16T16:11:07;15.10;1.00
1978;DHT22;989;53.016;8.346;2022-10-16T16:13:34;15.00;1.00
1978;DHT22;989;53.016;8.346;2022-10-16T16:16:09;14.90;1.00
1978;DHT22;989;53.016;8.346;2022-10-16T16:18:39;14.70;1.00
1978;DHT22;989;53.016;8.346;2022-10-16T16:21:05;14.50;1.00
1978;DHT22;989;53.016;8.346;2022-10-16T16:23:31;14.30;1.00
1978;DHT22;989;53.016;8.346;2022-10-16T16:26:15;14.00;1.00
1978;DHT22;989;53.016;8.346;2022-10-16T16:28:51;13.80;1.00
1978;DHT22;989;53.016;8.346;2022-10-16T16:31:17;13.50;1.30
1978;DHT22;989;53.016;8.346;2022-10-16T16:33:43;13.20;5.80
1978;DHT22;989;53.016;8.346;2022-10-16T16:36:09;13.00;13.50
1978;DHT22;989;53.016;8.346;2022-10-16T16:38:35;12.90;18.70
1978;DHT22;989;53.016;8.346;2022-10-16T16:41:14;12.60;21.80
1978;DHT22;989;53.016;8.346;2022-10-16T16:43:41;12.40;26.60
1978;DHT22;989;53.016;8.346;2022-10-16T16:46:07;12.20;27.60
1978;DHT22;989;53.016;8.346;2022-10-16T16:48:33;12.10;31.40
1978;DHT22;989;53.016;8.346;2022-10-16T16:51:07;12.00;37.40
1978;DHT22;989;53.016;8.346;2022-10-16T16:53:35;11.90;39.30
1978;DHT22;989;53.016;8.346;2022-10-16T16:56:05;11.80;47.20
1978;DHT22;989;53.016;8.346;2022-10-16T16:58:31;11.70;48.20
1978;DHT22;989;53.016;8.346;2022-10-16T17:00:58;11.60;50.20
1978;DHT22;989;53.016;8.346;2022-10-16T17:03:33;11.40;50.90
1978;DHT22;989;53.016;8.346;2022-10-16T17:06:09;11.30;54.50
1978;DHT22;989;53.016;8.346;2022-10-16T17:08:37;11.30;60.60
1978;DHT22;989;53.016;8.346;2022-10-16T17:11:05;11.30;66.10
1978;DHT22;989;53.016;8.346;2022-10-16T17:13:33;11.10;67.70
1978;DHT22;989;53.016;8.346;2022-10-16T17:16:05;11.00;73.30
1978;DHT22;989;53.016;8.346;2022-10-16T17:18:32;10.90;74.10
1978;DHT22;989;53.016;8.346;2022-10-16T17:21:00;10.80;76.50
1978;DHT22;989;53.016;8.346;2022-10-16T17:23:26;10.70;76.90
1978;DHT22;989;53.016;8.346;2022-10-16T17:25:53;10.70;81.40
1978;DHT22;989;53.016;8.346;2022-10-16T17:28:19;10.70;83.90
1978;DHT22;989;53.016;8.346;2022-10-16T17:30:44;10.80;87.10
1978;DHT22;989;53.016;8.346;2022-10-16T17:33:12;10.90;88.20
1978;DHT22;989;53.016;8.346;2022-10-16T17:35:44;10.90;89.00
1978;DHT22;989;53.016;8.346;2022-10-16T17:38:12;10.80;89.50
1978;DHT22;989;53.016;8.346;2022-10-16T17:40:39;10.80;90.30
1978;DHT22;989;53.016;8.346;2022-10-16T17:43:05;10.80;90.80
1978;DHT22;989;53.016;8.346;2022-10-16T17:45:35;10.70;91.40
1978;DHT22;989;53.016;8.346;2022-10-16T17:48:01;10.60;91.90
1978;DHT22;989;53.016;8.346;2022-10-16T17:50:27;10.60;93.10
1978;DHT22;989;53.016;8.346;2022-10-16T17:52:53;10.70;94.10
1978;DHT22;989;53.016;8.346;2022-10-16T17:55:19;10.60;94.80
1978;DHT22;989;53.016;8.346;2022-10-16T17:57:44;10.60;96.00
1978;DHT22;989;53.016;8.346;2022-10-16T18:00:10;10.60;95.30
1978;DHT22;989;53.016;8.346;2022-10-16T18:02:36;10.60;95.40
1978;DHT22;989;53.016;8.346;2022-10-16T18:05:09;10.60;95.80
1978;DHT22;989;53.016;8.346;2022-10-16T18:07:36;10.50;96.10
1978;DHT22;989;53.016;8.346;2022-10-16T18:10:02;10.60;96.90
1978;DHT22;989;53.016;8.346;2022-10-16T18:12:31;10.50;97.00
1978;DHT22;989;53.016;8.346;2022-10-16T18:14:57;10.50;97.10
1978;DHT22;989;53.016;8.346;2022-10-16T18:17:23;10.50;97.30
1978;DHT22;989;53.016;8.346;2022-10-16T18:19:49;10.50;97.10
1978;DHT22;989;53.016;8.346;2022-10-16T18:22:15;10.40;97.30
1978;DHT22;989;53.016;8.346;2022-10-16T18:24:40;10.40;97.50
1978;DHT22;989;53.016;8.346;2022-10-16T18:27:06;10.30;97.20
1978;DHT22;989;53.016;8.346;2022-10-16T18:29:32;10.30;97.30
1978;DHT22;989;53.016;8.346;2022-10-16T18:31:58;10.30;97.70
1978;DHT22;989;53.016;8.346;2022-10-16T18:34:23;10.30;98.20
1978;DHT22;989;53.016;8.346;2022-10-16T18:36:51;10.30;98.10